createdAt,value
2023-04-29T08:50:36.876Z,11.15
2023-04-29T08:53:03.971Z,11.50
2023-04-29T08:55:31.361Z,12.35
2023-04-29T08:57:58.531Z,10.82
2023-04-29T09:00:26.086Z,12.80
2023-04-29T09:02:56.266Z,12.13
2023-04-29T09:05:24.847Z,12.55
2023-04-29T09:07:52.810Z,11.18
2023-04-29T09:10:20.471Z,14.23
2023-04-29T09:12:47.881Z,10.23
2023-04-29T09:15:14.982Z,10.23
2023-04-29T09:17:50.959Z,14.48
2023-04-29T09:20:21.110Z,16.25
2023-04-29T09:22:53.997Z,13.05
2023-04-29T09:25:22.067Z,12.90
2023-04-29T09:27:49.363Z,12.25
2023-04-29T09:30:17.118Z,12.55
2023-04-29T09:32:48.117Z,13.60
2023-04-29T09:35:33.336Z,15.27
2023-04-29T09:38:14.937Z,15.02
2023-04-29T09:40:58.225Z,11.23
2023-04-29T09:43:26.631Z,13.27
2023-04-29T09:45:54.108Z,11.68
2023-04-29T09:48:21.288Z,10.15
2023-04-29T09:51:04.196Z,13.13
2023-04-29T09:53:32.404Z,14.75
2023-04-29T09:56:01.090Z,12.50
2023-04-29T09:58:40.603Z,8.52
2023-04-29T10:01:08.470Z,8.68
2023-04-29T10:03:38.633Z,10.00
2023-04-29T10:06:07.871Z,8.07
2023-04-29T10:08:35.780Z,10.32
2023-04-29T10:11:04.437Z,12.48
2023-04-29T10:13:35.044Z,10.75
2023-04-29T10:16:34.677Z,9.88
2023-04-29T10:19:07.820Z,11.13
2023-04-29T10:21:35.295Z,10.68
2023-04-29T10:24:03.912Z,13.52
2023-04-29T10:26:32.441Z,10.05
2023-04-29T10:29:00.556Z,9.85
2023-04-29T10:31:28.593Z,10.18
2023-04-29T10:33:58.090Z,12.40
2023-04-29T10:36:31.764Z,10.00
2023-04-29T10:39:06.521Z,12.68
2023-04-29T10:41:47.324Z,12.65
2023-04-29T10:44:14.982Z,13.60
2023-04-29T10:46:42.299Z,13.73
2023-04-29T10:49:13.256Z,12.40
2023-04-29T10:51:42.197Z,13.88
2023-04-29T10:54:12.165Z,11.90
2023-04-29T10:56:52.672Z,11.55
2023-04-29T10:59:42.807Z,11.25
2023-04-29T11:02:11.298Z,12.90
2023-04-29T11:05:08.446Z,15.43
2023-04-29T11:07:35.804Z,11.57
2023-04-29T11:10:03.766Z,15.25
2023-04-29T11:12:30.908Z,13.55
2023-04-29T11:15:05.145Z,16.88
2023-04-29T11:17:37.885Z,15.20
2023-04-29T11:20:11.768Z,15.27
2023-04-29T11:22:39.370Z,15.88
2023-04-29T11:25:07.850Z,14.43
2023-04-29T11:27:40.313Z,14.75
2023-04-29T11:30:08.557Z,17.35
2023-04-29T11:32:43.324Z,17.70
2023-04-29T11:35:15.518Z,15.20
2023-04-29T11:37:45.226Z,15.25
2023-04-29T11:40:13.911Z,14.68
2023-04-29T11:42:50.731Z,16.15
2023-04-29T11:45:18.944Z,12.68
2023-04-29T11:47:47.740Z,16.23
2023-04-29T11:50:20.965Z,14.75
2023-04-29T11:52:49.202Z,13.70
2023-04-29T11:55:16.667Z,11.85
2023-04-29T11:57:43.957Z,17.40
2023-04-29T12:00:13.138Z,13.98
2023-04-29T12:02:43.794Z,14.45
2023-04-29T12:05:13.554Z,12.18
2023-04-29T12:07:41.166Z,13.27
2023-04-29T12:10:10.841Z,12.15
2023-04-29T12:12:44.112Z,15.88
2023-04-29T12:15:13.038Z,15.68
2023-04-29T12:17:40.429Z,12.27
2023-04-29T12:20:10.976Z,11.70
2023-04-29T12:22:38.640Z,13.32
2023-04-29T12:32:25.278Z,17.25
2023-04-29T12:34:53.483Z,12.13
2023-04-29T12:37:23.225Z,12.80
2023-04-29T12:39:50.999Z,12.45
2023-04-29T12:42:18.309Z,12.43
2023-04-29T12:44:49.704Z,17.25
2023-04-29T12:47:17.448Z,17.25
2023-04-29T12:49:48.481Z,15.10
2023-04-29T12:52:15.752Z,13.35
2023-04-29T12:54:44.289Z,12.10
2023-04-29T12:57:12.661Z,10.30
2023-04-29T12:59:41.960Z,15.95
2023-04-29T13:02:09.290Z,11.02
2023-04-29T13:11:50.082Z,11.55
2023-04-29T13:14:17.306Z,14.13
2023-04-29T13:16:44.894Z,14.15
2023-04-29T13:19:29.463Z,11.02
2023-04-29T13:21:59.441Z,7.78
2023-04-29T13:24:26.658Z,17.50
2023-04-29T13:26:54.589Z,13.90
2023-04-29T13:29:21.782Z,13.38
2023-04-29T13:31:48.959Z,14.75
2023-04-29T13:34:16.110Z,14.02
2023-04-29T13:36:43.343Z,12.75
2023-04-29T13:39:10.741Z,14.13
2023-04-29T13:41:41.311Z,11.77
2023-04-29T13:44:23.988Z,12.48
2023-04-29T13:46:58.103Z,11.00
2023-04-29T13:49:42.375Z,13.10
2023-04-29T13:53:09.975Z,10.70
2023-04-29T13:55:39.464Z,11.60
2023-04-29T14:05:25.719Z,11.50
2023-04-29T14:07:53.009Z,13.65
2023-04-29T14:10:20.191Z,10.63
2023-04-29T14:12:49.015Z,11.90
2023-04-29T14:15:16.678Z,12.93
2023-04-29T14:17:43.864Z,10.30
2023-04-29T14:20:11.478Z,12.73
2023-04-29T14:22:38.638Z,10.63
2023-04-29T14:25:06.854Z,15.40
2023-04-29T14:27:35.945Z,15.98
2023-04-29T14:30:05.001Z,12.15
2023-04-29T14:32:32.182Z,16.15
2023-04-29T14:34:59.359Z,14.05
2023-04-29T14:37:30.337Z,11.27
2023-04-29T14:39:57.474Z,12.07
2023-04-29T14:42:24.932Z,11.27
2023-04-29T14:44:52.581Z,8.18
2023-04-29T14:47:20.207Z,13.00
2023-04-29T14:49:48.424Z,9.50
2023-04-29T14:52:19.715Z,10.43
2023-04-29T14:54:51.063Z,10.73
2023-04-29T14:57:21.918Z,10.90
2023-04-29T14:59:50.044Z,14.40
2023-04-29T15:02:17.382Z,10.57
2023-04-29T15:04:46.493Z,11.50
2023-04-29T15:07:14.142Z,12.68
2023-04-29T15:09:41.594Z,14.77
2023-04-29T15:12:09.685Z,10.25
2023-04-29T15:14:36.817Z,18.20
2023-04-29T15:17:04.184Z,12.98
2023-04-29T15:19:31.321Z,14.65
2023-04-29T15:21:58.471Z,11.77
2023-04-29T15:24:25.558Z,14.48
2023-04-29T15:26:53.495Z,15.52
2023-04-29T15:29:20.693Z,12.07
2023-04-29T15:31:47.864Z,13.80
2023-04-29T15:34:15.090Z,12.80
2023-04-29T15:36:43.368Z,12.35
2023-04-29T15:39:13.867Z,13.80
2023-04-29T15:41:41.195Z,11.70
2023-04-29T15:44:08.449Z,13.57
2023-04-29T15:46:35.616Z,11.85
2023-04-29T15:49:06.752Z,12.63
2023-04-29T15:51:33.894Z,13.50
2023-04-29T15:54:00.929Z,11.90
2023-04-29T15:56:28.034Z,12.88
2023-04-29T15:58:55.340Z,11.07
2023-04-29T16:01:22.443Z,15.68
2023-04-29T16:03:49.585Z,15.85
2023-04-29T16:06:17.005Z,9.93
2023-04-29T16:08:44.094Z,13.77
2023-04-29T16:11:12.271Z,12.85
2023-04-29T16:13:39.310Z,17.02
2023-04-29T16:16:06.667Z,11.73
2023-04-29T16:18:34.333Z,11.27
2023-04-29T16:21:05.520Z,12.73
2023-04-29T16:23:32.779Z,9.60
2023-04-29T16:26:00.907Z,13.13
2023-04-29T16:28:28.158Z,11.50
2023-04-29T16:30:55.291Z,11.80
2023-04-29T16:33:22.446Z,10.88
2023-04-29T16:35:49.757Z,11.95
2023-04-29T16:38:16.797Z,8.77
2023-04-29T16:40:43.908Z,9.85
2023-04-29T16:43:14.638Z,13.30
2023-04-29T16:45:41.969Z,10.48
2023-04-29T16:48:09.817Z,10.70
2023-04-29T16:50:41.059Z,9.35
2023-04-29T16:53:08.143Z,10.75
2023-04-29T16:55:35.375Z,12.25
2023-04-29T16:58:02.748Z,12.73
2023-04-29T17:00:31.688Z,9.80
2023-04-29T17:02:59.716Z,11.73
2023-04-29T17:05:27.729Z,13.60
2023-04-29T17:07:55.646Z,11.15
2023-04-29T17:10:22.845Z,12.80
2023-04-29T17:12:49.961Z,9.13
2023-04-29T17:15:17.041Z,11.57
2023-04-29T17:17:44.684Z,11.52
2023-04-29T17:20:12.787Z,10.35
2023-04-29T17:22:40.794Z,9.70
2023-04-29T17:25:09.380Z,11.00
2023-04-29T17:27:37.694Z,10.73
2023-04-29T17:30:06.500Z,7.22
2023-04-29T17:32:39.355Z,11.82
2023-04-29T17:35:09.862Z,11.80
2023-04-29T17:37:38.442Z,13.77
2023-04-29T17:40:07.018Z,11.05
2023-04-29T17:42:34.220Z,11.27
2023-04-29T17:45:01.271Z,14.23
2023-04-29T17:47:28.400Z,14.95
2023-04-29T17:49:56.926Z,8.20
2023-04-29T17:52:25.430Z,6.38
2023-04-29T17:54:52.545Z,11.63
2023-04-29T17:57:19.627Z,10.75
2023-04-29T17:59:47.405Z,13.32
2023-04-29T18:02:14.540Z,11.23
2023-04-29T18:04:42.044Z,12.15
2023-04-29T18:07:09.201Z,11.60
2023-04-29T18:09:36.348Z,12.63
2023-04-29T18:12:04.167Z,16.67
2023-04-29T18:14:32.181Z,15.23
2023-04-29T18:17:01.392Z,18.45
2023-04-29T18:19:28.740Z,17.90
2023-04-29T18:21:58.541Z,15.75
2023-04-29T18:24:26.267Z,14.02
2023-04-29T18:26:53.407Z,15.00
2023-04-29T18:29:20.508Z,17.60
2023-04-29T18:31:47.638Z,18.10
2023-04-29T18:34:15.579Z,14.10
2023-04-29T18:36:42.769Z,15.00
2023-04-29T18:39:09.819Z,15.73
2023-04-29T18:41:37.576Z,15.90
2023-04-29T18:44:04.625Z,18.30
2023-04-29T18:46:31.736Z,15.32
2023-04-29T18:48:58.832Z,15.60
2023-04-29T18:51:25.972Z,16.35
2023-04-29T18:53:53.125Z,14.13
2023-04-29T18:56:20.174Z,15.85
2023-04-29T18:58:48.750Z,13.68
2023-04-29T19:01:16.044Z,14.15
2023-04-29T19:03:43.265Z,13.88
2023-04-29T19:06:10.409Z,17.95
2023-04-29T19:08:37.623Z,15.02
2023-04-29T19:11:05.219Z,21.42
2023-04-29T19:13:32.472Z,16.35
2023-04-29T19:19:05.890Z,18.58
2023-04-29T19:21:36.463Z,12.45
2023-04-29T19:24:04.430Z,16.13
2023-04-29T19:26:34.600Z,13.70
2023-04-29T19:29:04.021Z,13.70
2023-04-29T19:31:31.512Z,12.75
2023-04-29T19:33:58.878Z,17.83
2023-04-29T19:36:26.594Z,17.75
2023-04-29T21:02:28.564Z,18.17
2023-04-29T21:04:55.964Z,16.20
2023-04-29T21:07:23.094Z,16.02
2023-04-29T21:09:50.654Z,17.02
2023-04-29T21:12:18.271Z,14.90
2023-04-29T21:14:45.414Z,17.30
2023-04-29T21:17:12.549Z,15.85
2023-04-29T21:19:39.767Z,17.45
2023-04-29T21:22:07.372Z,16.63
2023-04-29T21:24:34.469Z,14.95
2023-04-29T21:27:02.959Z,14.57
2023-04-29T21:29:30.045Z,18.13
2023-04-29T21:31:57.197Z,17.25
2023-04-29T21:34:24.396Z,14.73
2023-04-29T21:36:52.366Z,15.55
2023-04-29T21:39:19.512Z,18.00
2023-04-29T21:41:47.128Z,16.63
2023-04-29T21:44:14.328Z,16.98
2023-04-29T21:46:41.891Z,18.20
2023-04-29T21:49:09.338Z,15.18
2023-04-29T21:51:36.654Z,14.77
2023-04-29T21:54:08.682Z,16.13
2023-04-29T21:56:36.227Z,12.38
2023-04-29T21:59:03.776Z,18.65
2023-04-29T22:01:48.482Z,15.57
2023-04-29T22:04:19.422Z,16.70
2023-04-29T22:06:46.755Z,13.70
2023-04-29T22:09:13.983Z,13.10
2023-04-29T22:11:41.231Z,15.70
2023-04-29T22:14:08.381Z,16.77
2023-04-29T22:16:36.296Z,16.17
2023-04-29T22:19:03.956Z,18.75
2023-04-29T22:21:31.988Z,17.15
2023-04-29T22:23:59.580Z,20.27
2023-04-29T22:26:27.092Z,16.60
2023-04-29T22:28:54.901Z,20.27
2023-04-29T22:31:22.017Z,17.95
2023-04-29T22:33:51.214Z,18.17
2023-04-29T22:36:18.308Z,19.58
2023-04-29T22:38:45.915Z,21.27
2023-04-29T22:41:14.086Z,19.80
2023-04-29T22:43:41.246Z,19.20
2023-04-29T22:46:08.649Z,21.42
2023-04-29T22:48:35.925Z,19.70
2023-04-29T22:51:07.353Z,16.65
2023-04-29T22:53:34.494Z,17.10
2023-04-29T22:56:02.312Z,16.38
2023-04-29T22:58:29.711Z,18.30
2023-04-29T23:00:58.037Z,15.45
2023-04-29T23:03:25.605Z,14.55
2023-04-29T23:05:57.524Z,14.77
2023-04-29T23:08:24.718Z,13.05
2023-04-29T23:10:51.884Z,15.68
2023-04-29T23:13:19.316Z,19.13
2023-04-29T23:15:46.562Z,15.50
2023-04-29T23:18:13.769Z,15.20
2023-04-29T23:20:41.020Z,18.10
2023-04-29T23:23:08.228Z,16.27
2023-04-29T23:25:35.273Z,15.82
2023-04-29T23:28:05.642Z,20.70
2023-04-29T23:30:33.256Z,16.55
2023-04-29T23:33:00.347Z,16.50
2023-04-29T23:35:27.609Z,18.83
2023-04-29T23:37:54.650Z,16.88
2023-04-29T23:40:21.853Z,18.73
2023-04-29T23:42:48.960Z,17.55
2023-04-29T23:45:16.105Z,15.23
2023-04-29T23:47:43.619Z,17.75
2023-04-29T23:50:11.037Z,14.57
2023-04-29T23:52:38.160Z,15.52
2023-04-29T23:55:06.032Z,16.80
2023-04-29T23:57:33.334Z,17.13
